Time;durP1;ratioP1;P1;durP2;ratioP2;P2;SDS_P1;SDS_P2;PMS_P1;PMS_P2;Temp;Humidity;BMP_temperature;BMP_pressure;BME280_temperature;BME280_humidity;BME280_pressure;Samples;Min_cycle;Max_cycle;Signal;HPM_P1;HPM_P2
2024/02/24 00:02:23;;;;;;;;;;;;;;;16.13;47.18;100688.06;4957838;29;1006;-45
2024/02/24 00:04:48;;;;;;;;;;;;;;;15.81;47.82;100681.41;4957782;29;1653;-47
2024/02/24 00:07:14;;;;;;;;;;;;;;;15.54;48.47;100685.06;4958056;29;2510;-45
2024/02/24 00:09:39;;;;;;;;;;;;;;;15.48;48.58;100686.31;4956141;29;1014;-43
2024/02/24 00:12:05;;;;;;;;;;;;;;;15.26;49.35;100685.16;4946819;29;1058;-44
2024/02/24 00:14:30;;;;;;;;;;;;;;;16.48;46.61;100687.28;4956405;29;1907;-45
2024/02/24 00:16:56;;;;;;;;;;;;;;;17.40;44.22;100681.44;4940067;29;1148;-44
2024/02/24 00:19:21;;;;;;;;;;;;;;;16.34;46.35;100674.19;4952478;29;1125;-46
2024/02/24 00:21:47;;;;;;;;;;;;;;;15.83;47.67;100671.53;4951120;29;904;-46
2024/02/24 00:24:12;;;;;;;;;;;;;;;15.60;48.14;100670.53;4957859;29;1018;-45
2024/02/24 00:26:38;;;;;;;;;;;;;;;15.44;48.76;100671.59;4958120;29;1133;-48
2024/02/24 00:29:03;;;;;;;;;;;;;;;15.70;48.19;100676.03;4957394;29;1029;-47
2024/02/24 00:31:29;;;;;;;;;;;;;;;17.13;45.17;100667.50;4957718;29;1058;-47
2024/02/24 00:33:54;;;;;;;;;;;;;;;16.86;45.22;100677.44;4955622;29;1898;-44
2024/02/24 00:36:20;;;;;;;;;;;;;;;16.03;47.47;100677.28;4945851;29;2575;-45
2024/02/24 00:38:45;;;;;;;;;;;;;;;15.74;48.26;100674.84;4957341;29;1025;-45
2024/02/24 00:41:11;;;;;;;;;;;;;;;15.51;48.40;100682.63;4940473;29;1085;-46
2024/02/24 00:43:36;;;;;;;;;;;;;;;15.42;48.52;100677.00;4957132;29;1038;-43
2024/02/24 00:46:03;;;;;;;;;;;;;;;16.19;47.34;100676.16;4949832;29;967;-43
2024/02/24 00:48:28;;;;;;;;;;;;;;;17.39;44.22;100680.59;4957348;29;1021;-43
2024/02/24 00:50:54;;;;;;;;;;;;;;;16.37;46.36;100674.81;4959969;28;1037;-47
2024/02/24 00:53:19;;;;;;;;;;;;;;;15.96;47.67;100673.31;4961165;29;1982;-45
2024/02/24 00:55:45;;;;;;;;;;;;;;;15.64;48.36;100672.84;4961168;29;1142;-43
2024/02/24 00:58:11;;;;;;;;;;;;;;;15.46;48.84;100667.03;4959291;29;883;-42
2024/02/24 01:00:36;;;;;;;;;;;;;;;15.42;49.01;100662.88;4961707;29;1129;-42
2024/02/24 01:03:02;;;;;;;;;;;;;;;16.95;45.47;100659.94;4948134;29;1153;-44
2024/02/24 01:05:27;;;;;;;;;;;;;;;16.93;45.35;100659.22;4961145;29;1061;-42
2024/02/24 01:07:56;;;;;;;;;;;;;;;16.12;47.05;100660.66;4961406;29;2404;-44
2024/02/24 01:10:25;;;;;;;;;;;;;;;15.82;47.98;100663.69;4960621;29;877;-42
2024/02/24 01:12:50;;;;;;;;;;;;;;;15.61;48.15;100667.78;4960814;29;1979;-43
2024/02/24 01:15:16;;;;;;;;;;;;;;;15.37;48.99;100662.34;4960983;29;1098;-46
2024/02/24 01:17:42;;;;;;;;;;;;;;;16.14;47.52;100664.06;4960741;28;1155;-45
2024/02/24 01:20:08;;;;;;;;;;;;;;;17.35;44.49;100661.34;4954314;29;1216;-43
2024/02/24 01:22:34;;;;;;;;;;;;;;;16.33;46.56;100656.56;4956440;29;2418;-46
2024/02/24 01:24:59;;;;;;;;;;;;;;;15.89;47.59;100667.59;4958847;29;1820;-45
2024/02/24 01:27:25;;;;;;;;;;;;;;;15.62;48.35;100658.84;4955239;28;2396;-46
2024/02/24 01:29:50;;;;;;;;;;;;;;;15.41;49.05;100667.34;4946384;29;2070;-48
2024/02/24 01:32:16;;;;;;;;;;;;;;;15.41;49.09;100658.56;4942948;29;1958;-47
2024/02/24 01:34:41;;;;;;;;;;;;;;;16.94;45.55;100665.34;4958378;29;1856;-46
2024/02/24 01:37:07;;;;;;;;;;;;;;;17.25;44.38;100658.56;4949424;29;2323;-48
2024/02/24 01:39:32;;;;;;;;;;;;;;;16.37;46.53;100660.69;4951296;29;2400;-43
2024/02/24 01:41:58;;;;;;;;;;;;;;;16.03;47.51;100656.88;4960365;29;1284;-48
2024/02/24 01:44:24;;;;;;;;;;;;;;;15.73;48.15;100654.59;4936859;29;1505;-46
2024/02/24 01:46:50;;;;;;;;;;;;;;;15.52;48.28;100649.84;4958464;29;894;-44
2024/02/24 01:49:15;;;;;;;;;;;;;;;15.38;49.07;100654.28;4960573;29;1161;-45
2024/02/24 01:51:44;;;;;;;;;;;;;;;16.94;45.23;100650.28;4947794;29;1105;-45
2024/02/24 01:54:09;;;;;;;;;;;;;;;16.98;44.90;100657.03;4959052;29;1966;-47
2024/02/24 01:56:35;;;;;;;;;;;;;;;16.18;46.93;100656.75;4960052;29;1011;-47
2024/02/24 01:59:01;;;;;;;;;;;;;;;15.88;47.55;100664.09;4959731;29;1033;-45
2024/02/24 02:01:26;;;;;;;;;;;;;;;15.63;48.12;100662.34;4958645;28;1006;-44
2024/02/24 02:03:55;;;;;;;;;;;;;;;15.43;48.86;100654.81;4959969;29;1042;-48
2024/02/24 02:06:21;;;;;;;;;;;;;;;16.32;46.82;100655.72;4959673;29;1045;-45
2024/02/24 02:08:47;;;;;;;;;;;;;;;17.43;44.36;100655.47;4942395;29;2378;-46
2024/02/24 02:11:12;;;;;;;;;;;;;;;16.42;46.22;100653.22;4959634;29;1052;-46
2024/02/24 02:13:38;;;;;;;;;;;;;;;15.96;47.54;100660.06;4960709;29;1974;-42
2024/02/24 02:16:03;;;;;;;;;;;;;;;15.72;47.94;100650.22;4959413;29;1085;-42
2024/02/24 02:18:29;;;;;;;;;;;;;;;15.51;48.53;100653.47;4954900;29;1208;-44
2024/02/24 02:20:55;;;;;;;;;;;;;;;15.34;48.86;100655.47;4953528;29;1130;-43
2024/02/24 02:23:20;;;;;;;;;;;;;;;16.81;45.84;100652.16;4959434;29;1077;-45
2024/02/24 02:25:46;;;;;;;;;;;;;;;17.00;44.91;100652.47;4959356;29;1108;-42
2024/02/24 02:28:11;;;;;;;;;;;;;;;16.15;47.18;100655.13;4959726;29;1110;-48
2024/02/24 02:30:37;;;;;;;;;;;;;;;15.78;47.88;100655.94;4959144;29;1065;-46
2024/02/24 02:33:04;;;;;;;;;;;;;;;15.64;48.18;100651.63;4959073;29;1985;-42
2024/02/24 02:35:30;;;;;;;;;;;;;;;15.47;48.52;100657.25;4952807;29;1205;-45
2024/02/24 02:37:56;;;;;;;;;;;;;;;16.27;47.09;100653.41;4947570;29;1458;-45
2024/02/24 02:40:21;;;;;;;;;;;;;;;17.15;44.91;100646.94;4941921;29;3018;-46
2024/02/24 02:42:47;;;;;;;;;;;;;;;16.25;46.65;100650.00;4959725;29;1049;-47
2024/02/24 02:45:13;;;;;;;;;;;;;;;15.81;47.60;100659.34;4958805;29;1069;-44
2024/02/24 02:47:38;;;;;;;;;;;;;;;15.61;48.62;100666.91;4959436;29;1093;-44
2024/02/24 02:50:04;;;;;;;;;;;;;;;15.41;48.81;100662.03;4959334;29;1049;-48
2024/02/24 02:52:30;;;;;;;;;;;;;;;15.34;48.71;100668.72;4959183;29;2047;-46
2024/02/24 02:54:55;;;;;;;;;;;;;;;16.81;45.85;100660.13;4959123;29;1049;-46
2024/02/24 02:57:22;;;;;;;;;;;;;;;17.29;44.24;100667.16;4958916;29;1061;-47
2024/02/24 02:59:48;;;;;;;;;;;;;;;16.42;46.30;100663.84;4946453;28;1149;-47
2024/02/24 03:02:13;;;;;;;;;;;;;;;15.91;47.42;100676.31;4958802;29;1038;-45
2024/02/24 03:04:39;;;;;;;;;;;;;;;15.59;48.46;100671.47;4959166;29;1093;-49
2024/02/24 03:07:04;;;;;;;;;;;;;;;15.47;48.67;100673.16;4951745;29;1177;-47
2024/02/24 03:09:30;;;;;;;;;;;;;;;15.35;48.79;100678.38;4953303;28;2585;-45
2024/02/24 03:11:55;;;;;;;;;;;;;;;16.79;45.90;100670.88;4951000;29;1255;-44
2024/02/24 03:14:21;;;;;;;;;;;;;;;17.15;44.57;100664.72;4953533;29;1907;-47
2024/02/24 03:16:48;;;;;;;;;;;;;;;16.28;46.66;100663.03;4952456;29;1268;-49
2024/02/24 03:19:14;;;;;;;;;;;;;;;15.84;47.54;100670.59;4952420;29;1081;-47
2024/02/24 03:21:40;;;;;;;;;;;;;;;15.57;48.58;100670.72;4943658;29;1146;-48
2024/02/24 03:24:06;;;;;;;;;;;;;;;15.50;48.58;100670.28;4952250;29;1007;-48
2024/02/24 03:26:31;;;;;;;;;;;;;;;16.28;46.78;100664.88;4952059;29;1145;-44
2024/02/24 03:28:57;;;;;;;;;;;;;;;17.49;44.13;100670.06;4952810;29;1150;-46
2024/02/24 03:31:22;;;;;;;;;;;;;;;16.60;45.96;100676.75;4958825;29;1037;-48
2024/02/24 03:33:48;;;;;;;;;;;;;;;16.01;47.13;100680.03;4955394;29;1977;-45
2024/02/24 03:36:14;;;;;;;;;;;;;;;15.65;48.23;100681.63;4958275;29;896;-47
2024/02/24 03:38:40;;;;;;;;;;;;;;;15.51;48.50;100683.47;4958625;29;2519;-45
2024/02/24 03:41:05;;;;;;;;;;;;;;;15.30;48.77;100681.34;4958399;29;1124;-46
2024/02/24 03:43:31;;;;;;;;;;;;;;;16.43;46.72;100680.63;4958328;29;1106;-44
2024/02/24 03:45:56;;;;;;;;;;;;;;;17.50;44.13;100679.72;4954258;28;1423;-46
2024/02/24 03:48:22;;;;;;;;;;;;;;;16.60;45.77;100666.13;4951879;29;1295;-45
2024/02/24 03:50:48;;;;;;;;;;;;;;;16.06;46.93;100679.69;4958638;29;1116;-45
2024/02/24 03:53:13;;;;;;;;;;;;;;;15.77;48.09;100677.28;4958025;29;1966;-44
2024/02/24 03:55:39;;;;;;;;;;;;;;;15.61;48.29;100682.81;4957865;29;1046;-43
2024/02/24 03:58:04;;;;;;;;;;;;;;;15.40;48.74;100680.69;4954326;29;1077;-48
2024/02/24 04:00:34;;;;;;;;;;;;;;;16.78;45.77;100682.47;4945859;29;1008;-45
2024/02/24 04:03:00;;;;;;;;;;;;;;;17.33;44.13;100679.22;4957605;29;1046;-45
2024/02/24 04:05:25;;;;;;;;;;;;;;;16.42;46.22;100674.47;4945720;29;1120;-44
2024/02/24 04:07:51;;;;;;;;;;;;;;;15.91;47.68;100682.44;4958033;29;990;-44
2024/02/24 04:10:17;;;;;;;;;;;;;;;15.70;48.26;100684.81;4957653;29;2694;-47
2024/02/24 04:12:42;;;;;;;;;;;;;;;15.55;48.27;100673.47;4957803;29;1910;-48
2024/02/24 04:15:08;;;;;;;;;;;;;;;15.47;48.56;100684.63;4951719;29;1093;-47
2024/02/24 04:17:33;;;;;;;;;;;;;;;16.94;45.46;100684.81;4950875;29;1050;-45
2024/02/24 04:19:59;;;;;;;;;;;;;;;17.15;44.62;100684.16;4946880;29;1023;-46
2024/02/24 04:22:24;;;;;;;;;;;;;;;16.29;46.42;100695.75;4957703;29;1120;-47
2024/02/24 04:24:51;;;;;;;;;;;;;;;15.97;47.70;100690.91;4958970;28;1034;-45
2024/02/24 04:27:17;;;;;;;;;;;;;;;15.66;47.99;100691.31;4949639;29;1117;-45
2024/02/24 04:29:42;;;;;;;;;;;;;;;15.54;48.62;100685.06;4961239;29;1102;-48
2024/02/24 04:32:08;;;;;;;;;;;;;;;16.67;46.17;100688.56;4961620;29;1092;-44
2024/02/24 04:34:36;;;;;;;;;;;;;;;17.34;44.19;100688.06;4961443;29;1915;-45
2024/02/24 04:37:02;;;;;;;;;;;;;;;16.37;46.47;100693.38;4949160;29;1412;-47
2024/02/24 04:39:27;;;;;;;;;;;;;;;15.93;47.32;100692.13;4961361;29;2634;-48
2024/02/24 04:41:53;;;;;;;;;;;;;;;15.71;48.16;100693.63;4961654;29;1112;-47
2024/02/24 04:44:18;;;;;;;;;;;;;;;15.54;48.30;100693.88;4961402;29;1200;-50
2024/02/24 04:46:44;;;;;;;;;;;;;;;15.36;49.02;100700.44;4961305;29;1045;-50
2024/02/24 04:49:09;;;;;;;;;;;;;;;15.78;48.40;100708.16;4948687;29;1211;-48
2024/02/24 04:51:35;;;;;;;;;;;;;;;17.19;44.92;100703.38;4961550;29;990;-48
2024/02/24 04:54:00;;;;;;;;;;;;;;;16.42;46.16;100701.00;4959481;29;1907;-46
2024/02/24 04:56:26;;;;;;;;;;;;;;;15.91;47.50;100711.63;4960942;29;1367;-48
2024/02/24 04:58:51;;;;;;;;;;;;;;;15.66;48.14;100710.69;4961149;29;1216;-44
2024/02/24 05:01:17;;;;;;;;;;;;;;;15.46;48.91;100713.91;4960919;29;1105;-42
2024/02/24 05:03:43;;;;;;;;;;;;;;;15.30;49.13;100709.63;4960915;29;1100;-42
2024/02/24 05:06:09;;;;;;;;;;;;;;;16.73;45.83;100719.16;4961383;29;1120;-46
2024/02/24 05:08:34;;;;;;;;;;;;;;;16.87;45.21;100723.44;4957627;28;2627;-44
2024/02/24 05:11:00;;;;;;;;;;;;;;;16.04;47.10;100724.06;4961146;29;1180;-43
2024/02/24 05:13:26;;;;;;;;;;;;;;;15.86;47.77;100732.34;4960799;29;1915;-43
2024/02/24 05:15:52;;;;;;;;;;;;;;;17.37;44.21;100733.88;4949208;29;1136;-45
2024/02/24 05:18:17;;;;;;;;;;;;;;;15.99;46.93;100735.00;4959631;28;1133;-44
2024/02/24 05:20:43;;;;;;;;;;;;;;;15.29;48.30;100739.75;4961546;29;1041;-42
2024/02/24 05:23:08;;;;;;;;;;;;;;;15.38;48.94;100740.94;4958351;29;1077;-47
2024/02/24 05:25:34;;;;;;;;;;;;;;;16.63;45.94;100751.69;4960860;29;1100;-47
2024/02/24 05:28:00;;;;;;;;;;;;;;;15.48;48.15;100747.28;4960578;29;1034;-44
2024/02/24 05:30:26;;;;;;;;;;;;;;;16.00;47.93;100752.63;4960689;29;1049;-43
2024/02/24 05:32:52;;;;;;;;;;;;;;;15.88;47.46;100756.13;4956611;28;1919;-42
2024/02/24 05:35:17;;;;;;;;;;;;;;;15.34;48.54;100760.63;4944279;29;1078;-45
2024/02/24 05:37:43;;;;;;;;;;;;;;;17.23;44.76;100763.34;4954121;29;1165;-45
2024/02/24 05:40:09;;;;;;;;;;;;;;;15.74;47.72;100759.72;4952148;29;1078;-43
2024/02/24 05:42:34;;;;;;;;;;;;;;;15.26;47.90;100763.81;4960690;29;1157;-40
2024/02/24 05:45:00;;;;;;;;;;;;;;;16.77;46.50;100771.94;4960508;29;1209;-44
2024/02/24 05:47:25;;;;;;;;;;;;;;;16.38;46.59;100771.25;4960063;29;1232;-46
2024/02/24 05:49:51;;;;;;;;;;;;;;;15.53;47.67;100777.00;4949290;29;1212;-43
2024/02/24 05:52:17;;;;;;;;;;;;;;;17.19;45.46;100773.38;4958605;29;896;-42
2024/02/24 05:54:42;;;;;;;;;;;;;;;16.16;46.81;100770.94;4960023;29;1907;-43
2024/02/24 05:57:08;;;;;;;;;;;;;;;15.61;47.35;100778.28;4960183;29;1046;-44
2024/02/24 05:59:34;;;;;;;;;;;;;;;15.95;48.20;100775.94;4959807;29;1073;-46
2024/02/24 06:02:00;;;;;;;;;;;;;;;17.74;44.08;100780.75;4960089;29;1068;-44
2024/02/24 06:04:26;;;;;;;;;;;;;;;16.06;47.16;100787.63;4960164;29;1069;-42
2024/02/24 06:06:51;;;;;;;;;;;;;;;15.50;47.42;100787.81;4960397;29;1121;-42
2024/02/24 06:09:17;;;;;;;;;;;;;;;16.87;46.22;100782.75;4960228;29;1157;-43
2024/02/24 06:11:42;;;;;;;;;;;;;;;15.82;47.53;100780.41;4955224;29;1173;-43
2024/02/24 06:14:08;;;;;;;;;;;;;;;15.36;47.88;100787.91;4934531;29;1903;-42
2024/02/24 06:16:33;;;;;;;;;;;;;;;16.39;47.56;100791.50;4959891;29;1153;-44
2024/02/24 06:18:59;;;;;;;;;;;;;;;16.43;46.92;100790.34;4959548;29;1097;-41
2024/02/24 06:21:25;;;;;;;;;;;;;;;15.60;48.00;100789.84;4959490;29;1034;-44
2024/02/24 06:23:51;;;;;;;;;;;;;;;15.40;47.43;100786.72;4959589;29;1093;-40
2024/02/24 06:26:16;;;;;;;;;;;;;;;16.44;47.58;100802.66;4955794;29;1041;-43
2024/02/24 06:28:42;;;;;;;;;;;;;;;16.71;46.57;100788.34;4951249;29;1122;-43
2024/02/24 06:31:08;;;;;;;;;;;;;;;15.80;47.42;100796.41;4959417;29;1176;-42
2024/02/24 06:33:34;;;;;;;;;;;;;;;15.56;47.27;100789.22;4959350;29;1895;-43
2024/02/24 06:35:59;;;;;;;;;;;;;;;15.36;46.69;100791.41;4955163;29;1153;-44
2024/02/24 06:38:25;;;;;;;;;;;;;;;16.20;47.81;100792.81;4950812;29;1065;-42
2024/02/24 06:40:50;;;;;;;;;;;;;;;17.83;44.91;100799.63;4959528;29;1089;-46
2024/02/24 06:43:16;;;;;;;;;;;;;;;16.21;47.40;100794.53;4949563;29;1122;-42
2024/02/24 06:45:41;;;;;;;;;;;;;;;15.81;47.36;100794.63;4952922;29;1077;-45
2024/02/24 06:48:07;;;;;;;;;;;;;;;15.87;48.44;100784.44;4940135;29;1073;-45
2024/02/24 06:50:32;;;;;;;;;;;;;;;15.77;48.22;100786.88;4956149;29;1148;-43
2024/02/24 06:52:58;;;;;;;;;;;;;;;15.53;47.61;100795.56;4959122;29;1902;-47
2024/02/24 06:55:23;;;;;;;;;;;;;;;16.07;47.98;100787.53;4959312;29;1116;-42
2024/02/24 06:57:49;;;;;;;;;;;;;;;16.62;46.84;100799.63;4959019;28;1054;-44
2024/02/24 07:00:15;;;;;;;;;;;;;;;15.74;47.72;100800.34;4952372;29;1062;-42
2024/02/24 07:02:40;;;;;;;;;;;;;;;15.52;47.52;100795.66;4959105;28;1157;-41
2024/02/24 07:05:06;;;;;;;;;;;;;;;15.54;48.30;100799.06;4958817;29;1100;-43
2024/02/24 07:07:32;;;;;;;;;;;;;;;16.83;46.52;100809.66;4958781;29;1046;-44
2024/02/24 07:09:59;;;;;;;;;;;;;;;15.76;47.88;100805.56;4958958;29;1078;-43
2024/02/24 07:12:25;;;;;;;;;;;;;;;15.39;47.46;100796.50;4958478;29;960;-43
2024/02/24 07:14:50;;;;;;;;;;;;;;;17.36;46.17;100795.16;4958351;29;1898;-44
2024/02/24 07:17:16;;;;;;;;;;;;;;;15.99;48.16;100804.00;4958944;29;1112;-42
2024/02/24 07:19:41;;;;;;;;;;;;;;;15.86;48.65;100803.13;4958560;29;1073;-44
2024/02/24 07:22:07;;;;;;;;;;;;;;;16.99;46.43;100804.91;4958375;29;1058;-42
2024/02/24 07:24:32;;;;;;;;;;;;;;;15.84;48.32;100807.66;4951675;29;1209;-43
2024/02/24 07:26:58;;;;;;;;;;;;;;;15.58;47.48;100797.06;4958602;29;1216;-45
2024/02/24 07:29:23;;;;;;;;;;;;;;;15.44;47.37;100796.19;4958400;29;1112;-42
2024/02/24 07:31:49;;;;;;;;;;;;;;;15.28;46.82;100806.97;4958464;29;1165;-45
2024/02/24 07:34:15;;;;;;;;;;;;;;;15.17;46.34;100802.38;4958281;29;1914;-43
2024/02/24 07:36:40;;;;;;;;;;;;;;;16.65;47.24;100810.88;4957628;29;906;-42
2024/02/24 07:39:06;;;;;;;;;;;;;;;15.98;48.37;100810.25;4958112;29;1070;-41
2024/02/24 07:41:32;;;;;;;;;;;;;;;16.38;48.29;100814.53;4958254;29;1137;-42
2024/02/24 07:43:57;;;;;;;;;;;;;;;17.60;45.60;100810.22;4958201;29;1069;-43
2024/02/24 07:46:29;;;;;;;;;;;;;;;16.10;48.17;100813.03;4957942;29;1081;-43
2024/02/24 07:48:57;;;;;;;;;;;;;;;15.69;47.66;100810.44;4949709;29;1158;-42
2024/02/24 07:51:23;;;;;;;;;;;;;;;15.48;47.53;100810.91;4958344;29;1089;-41
2024/02/24 07:53:48;;;;;;;;;;;;;;;16.01;48.59;100807.41;4957704;29;1914;-43
2024/02/24 07:56:14;;;;;;;;;;;;;;;16.54;47.48;100805.50;4958137;29;2642;-45
2024/02/24 07:58:40;;;;;;;;;;;;;;;15.70;48.13;100806.81;4958243;28;1101;-41
2024/02/24 08:01:05;;;;;;;;;;;;;;;16.13;49.12;100813.63;4958265;29;923;-46
2024/02/24 08:03:31;;;;;;;;;;;;;;;16.23;47.96;100805.03;4945098;29;1232;-42
2024/02/24 08:05:57;;;;;;;;;;;;;;;15.63;48.11;100809.03;4958053;29;1085;-42
2024/02/24 08:08:22;;;;;;;;;;;;;;;15.44;47.53;100804.13;4955291;29;1062;-42
2024/02/24 08:10:48;;;;;;;;;;;;;;;16.91;47.13;100809.94;4948105;29;1078;-42
2024/02/24 08:13:13;;;;;;;;;;;;;;;15.83;48.34;100811.28;4957368;29;1910;-43
2024/02/24 08:15:39;;;;;;;;;;;;;;;15.54;47.82;100812.31;4957888;29;1193;-42
2024/02/24 08:18:05;;;;;;;;;;;;;;;15.26;47.37;100808.88;4957899;29;1200;-42
2024/02/24 08:20:31;;;;;;;;;;;;;;;17.11;46.88;100812.97;4957746;29;1089;-44
2024/02/24 08:22:57;;;;;;;;;;;;;;;16.19;47.99;100801.75;4957810;29;1112;-44
2024/02/24 08:25:23;;;;;;;;;;;;;;;15.77;48.07;100800.16;4946932;29;943;-44
2024/02/24 08:27:48;;;;;;;;;;;;;;;16.18;48.75;100807.16;4938259;29;1372;-42
2024/02/24 08:30:14;;;;;;;;;;;;;;;16.57;47.59;100804.41;4957846;29;1078;-41
2024/02/24 08:32:39;;;;;;;;;;;;;;;15.84;47.98;100797.91;4958042;29;1994;-44
2024/02/24 08:35:05;;;;;;;;;;;;;;;15.53;47.95;100803.50;4957637;29;1097;-42
2024/02/24 08:37:30;;;;;;;;;;;;;;;15.36;47.27;100787.91;4957561;29;1080;-43
2024/02/24 08:39:56;;;;;;;;;;;;;;;16.05;47.98;100800.03;4958453;29;1084;-42
2024/02/24 08:42:21;;;;;;;;;;;;;;;16.79;47.22;100800.19;4957370;29;1132;-43
2024/02/24 08:44:47;;;;;;;;;;;;;;;15.75;48.69;100788.78;4957616;28;1066;-43
2024/02/24 08:47:12;;;;;;;;;;;;;;;15.77;48.43;100793.97;4957671;29;1144;-44
2024/02/24 08:49:38;;;;;;;;;;;;;;;17.69;45.74;100788.22;4957865;29;843;-43
2024/02/24 08:52:04;;;;;;;;;;;;;;;16.26;48.00;100792.41;4957963;29;1073;-43
2024/02/24 08:54:29;;;;;;;;;;;;;;;15.76;47.93;100781.69;4957067;29;1902;-42
2024/02/24 08:56:55;;;;;;;;;;;;;;;15.59;47.45;100788.13;4944687;29;1228;-43
2024/02/24 08:59:20;;;;;;;;;;;;;;;15.39;47.50;100783.25;4958072;29;1108;-42
2024/02/24 09:01:46;;;;;;;;;;;;;;;15.24;47.27;100786.91;4946824;29;1065;-42
2024/02/24 09:04:11;;;;;;;;;;;;;;;17.10;47.17;100782.03;4957943;29;1149;-41
2024/02/24 09:06:37;;;;;;;;;;;;;;;16.50;47.75;100783.63;4957341;29;1144;-40
2024/02/24 09:09:05;;;;;;;;;;;;;;;15.81;48.29;100792.84;4957364;29;1074;-44
2024/02/24 09:11:31;;;;;;;;;;;;;;;15.56;47.82;100786.56;4958918;28;1069;-44
2024/02/24 09:13:57;;;;;;;;;;;;;;;17.38;46.66;100786.09;4960908;29;2034;-40
2024/02/24 09:16:22;;;;;;;;;;;;;;;16.11;48.17;100783.72;4961000;29;1061;-45
2024/02/24 09:18:48;;;;;;;;;;;;;;;15.76;48.29;100784.34;4959981;29;1121;-43
2024/02/24 09:21:13;;;;;;;;;;;;;;;15.49;47.71;100782.63;4961252;29;1077;-44
2024/02/24 09:23:39;;;;;;;;;;;;;;;15.59;48.22;100788.13;4960757;29;1085;-45
2024/02/24 09:26:05;;;;;;;;;;;;;;;16.31;47.73;100792.06;4960078;29;1100;-41
2024/02/24 09:28:30;;;;;;;;;;;;;;;15.67;48.23;100789.31;4951406;29;1232;-41
2024/02/24 09:30:56;;;;;;;;;;;;;;;15.48;48.50;100792.34;4957382;29;1384;-43
2024/02/24 09:33:21;;;;;;;;;;;;;;;17.27;46.60;100783.41;4951544;29;1910;-43
2024/02/24 09:35:47;;;;;;;;;;;;;;;15.98;48.60;100789.00;4956775;29;1074;-43
2024/02/24 09:38:12;;;;;;;;;;;;;;;16.16;49.34;100791.34;4954085;29;1453;-45
2024/02/24 09:40:38;;;;;;;;;;;;;;;16.47;48.13;100791.81;4960430;29;1145;-44
2024/02/24 09:43:03;;;;;;;;;;;;;;;15.81;48.52;100781.34;4960650;29;1113;-44
2024/02/24 09:45:32;;;;;;;;;;;;;;;15.58;47.97;100775.84;4960771;29;1104;-42
2024/02/24 09:47:58;;;;;;;;;;;;;;;15.52;47.58;100777.09;4960107;29;1029;-41
2024/02/24 09:50:23;;;;;;;;;;;;;;;16.08;48.33;100772.47;4939630;29;1085;-43
2024/02/24 09:52:49;;;;;;;;;;;;;;;16.82;47.38;100776.06;4951315;29;1986;-43
2024/02/24 09:55:14;;;;;;;;;;;;;;;15.85;48.96;100781.03;4960381;29;1204;-48
2024/02/24 09:57:40;;;;;;;;;;;;;;;15.57;48.11;100785.59;4959703;28;1069;-48
2024/02/24 10:00:06;;;;;;;;;;;;;;;15.47;47.67;100780.06;4942816;29;1164;-47
2024/02/24 10:02:39;;;;;;;;;;;;;;;15.38;47.18;100773.56;4959727;29;898;-46
2024/02/24 10:05:05;;;;;;;;;;;;;;;16.80;47.86;100770.03;4960066;29;1165;-43
2024/02/24 10:07:30;;;;;;;;;;;;;;;16.87;47.34;100765.94;4959846;29;1029;-43
2024/02/24 10:09:56;;;;;;;;;;;;;;;15.93;48.43;100763.75;4960135;29;1128;-47
2024/02/24 10:12:22;;;;;;;;;;;;;;;16.81;48.21;100769.06;4959920;29;991;-43
2024/02/24 10:14:48;;;;;;;;;;;;;;;16.29;48.54;100759.47;4946609;29;1906;-45
2024/02/24 10:17:13;;;;;;;;;;;;;;;15.81;48.37;100760.13;4959836;29;1078;-41
2024/02/24 10:19:39;;;;;;;;;;;;;;;15.72;47.55;100772.22;4959886;29;1129;-43
2024/02/24 10:22:05;;;;;;;;;;;;;;;15.60;47.24;100758.03;4959309;28;1085;-41
2024/02/24 10:24:30;;;;;;;;;;;;;;;15.62;47.98;100756.09;4959740;29;1124;-41
2024/02/24 10:26:56;;;;;;;;;;;;;;;16.99;47.11;100743.78;4959354;29;854;-40
2024/02/24 10:29:31;;;;;;;;;;;;;;;15.91;48.47;100748.75;4959670;29;1053;-43
2024/02/24 10:31:56;;;;;;;;;;;;;;;15.66;48.02;100747.00;4960240;29;1158;-39
2024/02/24 10:34:22;;;;;;;;;;;;;;;15.61;48.72;100747.31;4959282;28;1910;-40
2024/02/24 10:36:48;;;;;;;;;;;;;;;16.64;47.52;100748.09;4959376;29;1049;-41
2024/02/24 10:39:13;;;;;;;;;;;;;;;15.88;48.15;100746.34;4941848;29;1204;-44
2024/02/24 10:41:39;;;;;;;;;;;;;;;15.64;47.67;100747.09;4958222;29;1089;-43
2024/02/24 10:44:04;;;;;;;;;;;;;;;15.49;47.39;100740.19;4957818;29;1076;-44
2024/02/24 10:46:30;;;;;;;;;;;;;;;16.60;48.31;100741.31;4959195;29;1081;-41
2024/02/24 10:48:57;;;;;;;;;;;;;;;16.33;48.46;100749.47;4959154;29;1098;-46
2024/02/24 10:51:22;;;;;;;;;;;;;;;15.79;48.38;100745.19;4959411;29;1070;-46
2024/02/24 10:53:52;;;;;;;;;;;;;;;15.53;48.02;100739.88;4945687;29;1918;-43
2024/02/24 10:56:18;;;;;;;;;;;;;;;17.15;46.99;100733.84;4942487;29;1116;-44
2024/02/24 10:58:44;;;;;;;;;;;;;;;15.93;48.84;100738.06;4959237;29;1105;-44
2024/02/24 11:01:09;;;;;;;;;;;;;;;15.73;48.41;100732.34;4957266;29;1169;-47
2024/02/24 11:03:35;;;;;;;;;;;;;;;15.60;47.96;100740.31;4940793;29;1034;-46
2024/02/24 11:06:02;;;;;;;;;;;;;;;16.00;48.46;100731.38;4959294;29;1208;-46
2024/02/24 11:08:37;;;;;;;;;;;;;;;16.07;48.62;100739.75;4958977;29;1049;-42
2024/02/24 11:11:04;;;;;;;;;;;;;;;15.55;48.64;100737.13;4959425;29;1144;-45
2024/02/24 11:13:29;;;;;;;;;;;;;;;15.49;47.68;100732.25;4954858;29;1906;-46
2024/02/24 11:15:55;;;;;;;;;;;;;;;15.29;47.62;100729.16;4952772;29;1199;-45
2024/02/24 11:18:40;;;;;;;;;;;;;;;15.19;47.40;100728.94;4958992;29;1038;-46
2024/02/24 11:21:06;;;;;;;;;;;;;;;16.93;47.56;100730.97;4958725;29;1459;-41
2024/02/24 11:23:34;;;;;;;;;;;;;;;16.19;48.29;100730.09;4958936;29;1053;-42
2024/02/24 11:26:20;;;;;;;;;;;;;;;15.63;48.53;100726.81;4958371;29;938;-41
2024/02/24 11:29:08;;;;;;;;;;;;;;;16.60;48.41;100711.25;4959264;29;1074;-42
2024/02/24 11:31:34;;;;;;;;;;;;;;;15.99;48.54;100719.09;4947554;29;1105;-42
2024/02/24 11:34:05;;;;;;;;;;;;;;;15.67;49.09;100707.09;4958512;28;1910;-43
2024/02/24 11:36:31;;;;;;;;;;;;;;;16.64;47.47;100718.88;4958906;29;1126;-43
2024/02/24 11:38:57;;;;;;;;;;;;;;;15.86;48.52;100718.22;4958568;29;1144;-44
2024/02/24 11:41:23;;;;;;;;;;;;;;;15.61;48.40;100712.00;4958082;29;1034;-46
2024/02/24 11:43:48;;;;;;;;;;;;;;;15.47;47.60;100711.13;4958687;29;1033;-44
2024/02/24 11:46:14;;;;;;;;;;;;;;;16.47;47.90;100717.47;4958831;29;1244;-47
2024/02/24 11:48:39;;;;;;;;;;;;;;;15.72;48.55;100714.75;4958606;29;1033;-46
2024/02/24 11:51:05;;;;;;;;;;;;;;;15.64;47.70;100709.97;4958451;29;855;-44
2024/02/24 11:53:30;;;;;;;;;;;;;;;16.51;48.18;100713.63;4941207;29;1911;-43
2024/02/24 11:55:56;;;;;;;;;;;;;;;17.00;46.92;100713.56;4958705;29;1092;-45
2024/02/24 11:58:22;;;;;;;;;;;;;;;16.00;48.13;100712.81;4958628;29;1128;-44
2024/02/24 12:00:47;;;;;;;;;;;;;;;15.76;47.79;100712.72;4941341;29;1035;-45
2024/02/24 12:03:13;;;;;;;;;;;;;;;15.51;47.86;100717.09;4957301;29;890;-46
2024/02/24 12:05:39;;;;;;;;;;;;;;;16.05;48.57;100709.81;4958269;29;1081;-48
2024/02/24 12:08:05;;;;;;;;;;;;;;;17.04;47.12;100702.72;4958162;29;1122;-46
2024/02/24 12:10:36;;;;;;;;;;;;;;;16.01;48.33;100711.03;4941067;29;1168;-44
2024/02/24 12:13:06;;;;;;;;;;;;;;;15.77;47.96;100706.44;4945600;29;1911;-49
2024/02/24 12:15:38;;;;;;;;;;;;;;;15.63;47.49;100697.66;4934238;29;893;-46
2024/02/24 12:18:04;;;;;;;;;;;;;;;15.52;46.98;100700.22;4958303;29;1176;-46
2024/02/24 12:20:30;;;;;;;;;;;;;;;16.39;48.11;100710.06;4958044;29;1046;-47
2024/02/24 12:23:01;;;;;;;;;;;;;;;16.31;48.08;100717.75;4954493;29;1093;-45
2024/02/24 12:25:27;;;;;;;;;;;;;;;15.73;48.36;100713.78;4950217;29;1091;-47
2024/02/24 12:27:53;;;;;;;;;;;;;;;15.59;47.81;100717.41;4957915;29;919;-45
2024/02/24 12:30:19;;;;;;;;;;;;;;;15.65;48.47;100710.81;4941216;29;1066;-45
2024/02/24 12:32:44;;;;;;;;;;;;;;;16.17;48.19;100713.41;4957779;29;1907;-44
2024/02/24 12:35:10;;;;;;;;;;;;;;;15.66;47.94;100704.56;4941102;29;1058;-45
2024/02/24 12:37:36;;;;;;;;;;;;;;;16.35;48.36;100711.22;4958287;29;1146;-46
2024/02/24 12:40:04;;;;;;;;;;;;;;;17.20;46.68;100710.41;4947408;28;965;-47
2024/02/24 12:42:29;;;;;;;;;;;;;;;16.02;48.65;100713.56;4955664;29;1166;-47